Terminal Aerodrome Forecast
Issued by NWS

Home | Current Version | Previous Version | Text Only | Print | Product List | Glossary On
Versions: 1 2 3 4 5 6 7 8 9 10 11 12 13 14 15 16 17 18 19 20 21 22 23 24 25 26 27 28 29 30 31 32 33 34 35 36 37 38
000
FTUS45 KGJT 211934 AAA
TAFMTJ
TAF AMD
KMTJ 211934Z 2120/2218 VRB03KT P6SM VCSH SCT007 BKN030 OVC050
      TEMPO 2120/2123 BKN007
     FM212300 26012KT P6SM VCSH OVC050
     FM220500 30010KT P6SM VCSH OVC050
     FM221200 35004KT 1SM BR OVC010
     FM221600 VRB02KT P6SM SCT010 OVC020=

USA.gov is the U.S. government's official web portal to all federal, state and local government web resources and services.